Time;durP1;ratioP1;P1;durP2;ratioP2;P2;SDS_P1;SDS_P2;PMS_P1;PMS_P2;Temp;Humidity;BMP_temperature;BMP_pressure;BME280_temperature;BME280_humidity;BME280_pressure;Samples;Min_cycle;Max_cycle;Signal;HPM_P1;HPM_P2
2022/10/07 00:02:18;;;;;;;6.45;2.15;;;9.10;99.90;;;;;;5088326;28;20036;-69
2022/10/07 00:04:45;;;;;;;6.03;2.10;;;9.20;99.90;;;;;;5088834;28;20051;-70
2022/10/07 00:07:12;;;;;;;4.65;1.90;;;9.10;99.90;;;;;;5073517;28;20044;-69
2022/10/07 00:09:37;;;;;;;7.70;2.20;;;9.10;99.90;;;;;;5088908;28;20100;-70
2022/10/07 00:12:04;;;;;;;10.10;3.05;;;9.10;99.90;;;;;;5087599;28;20044;-69
2022/10/07 00:14:29;;;;;;;6.03;2.20;;;9.10;99.90;;;;;;5093019;28;20051;-69
2022/10/07 00:16:55;;;;;;;5.32;2.28;;;9.10;99.90;;;;;;5090645;28;20036;-69
2022/10/07 00:19:21;;;;;;;10.65;2.58;;;9.10;99.90;;;;;;5089177;28;20059;-69
2022/10/07 00:21:47;;;;;;;10.88;2.38;;;9.00;99.90;;;;;;5091040;28;20111;-69
2022/10/07 00:24:14;;;;;;;16.25;3.22;;;9.00;99.90;;;;;;5092439;28;20430;-69
2022/10/07 00:26:40;;;;;;;6.50;3.00;;;9.00;99.90;;;;;;5076001;28;20055;-69
2022/10/07 00:29:06;;;;;;;10.23;2.45;;;9.00;99.90;;;;;;5092147;28;20043;-70
2022/10/07 00:31:35;;;;;;;8.02;2.88;;;9.00;99.90;;;;;;5090482;28;20050;-69
2022/10/07 00:34:02;;;;;;;9.95;3.00;;;9.00;99.90;;;;;;5089295;28;20040;-70
2022/10/07 00:36:31;;;;;;;9.85;3.00;;;9.00;99.90;;;;;;5090450;28;20123;-69
2022/10/07 00:39:02;;;;;;;8.02;2.83;;;9.00;99.90;;;;;;5090439;28;20065;-70
2022/10/07 00:41:31;;;;;;;8.47;2.20;;;9.00;99.90;;;;;;5091077;28;20119;-69
2022/10/07 00:43:58;;;;;;;8.77;2.90;;;9.00;99.90;;;;;;5092902;28;20290;-69
2022/10/07 00:46:34;;;;;;;8.80;3.30;;;9.00;99.90;;;;;;5074379;28;20071;-69
2022/10/07 00:49:05;;;;;;;8.13;2.40;;;8.90;99.90;;;;;;5074671;28;20074;-69
2022/10/07 00:51:32;;;;;;;11.18;2.63;;;8.90;99.90;;;;;;5089202;28;20044;-69
2022/10/07 00:53:59;;;;;;;12.57;3.10;;;8.90;99.90;;;;;;5090704;28;20110;-69
2022/10/07 00:56:26;;;;;;;10.85;2.67;;;8.90;99.90;;;;;;5091197;28;20040;-70
2022/10/07 00:58:52;;;;;;;9.23;2.50;;;8.90;99.90;;;;;;5091569;28;20085;-69
2022/10/07 01:01:19;;;;;;;9.32;3.03;;;8.80;99.90;;;;;;5088210;28;20039;-69
2022/10/07 01:03:47;;;;;;;9.57;2.80;;;8.90;99.90;;;;;;5089893;28;20032;-69
2022/10/07 01:06:13;;;;;;;7.00;2.53;;;8.80;99.90;;;;;;5089785;28;20036;-69
2022/10/07 01:08:39;;;;;;;9.02;2.67;;;8.90;99.90;;;;;;5090789;28;20048;-70
2022/10/07 01:11:12;;;;;;;9.60;2.80;;;8.90;99.90;;;;;;5089700;28;20043;-69
2022/10/07 01:13:54;;;;;;;6.22;2.30;;;8.90;99.90;;;;;;5091749;28;20044;-69
2022/10/07 01:16:40;;;;;;;10.10;2.83;;;8.90;99.90;;;;;;5088956;28;20123;-69
2022/10/07 01:19:12;;;;;;;12.75;3.22;;;8.90;99.90;;;;;;5088426;28;20032;-69
2022/10/07 01:21:50;;;;;;;9.43;2.83;;;8.90;99.90;;;;;;5089854;28;20551;-69
2022/10/07 01:24:24;;;;;;;11.27;2.95;;;8.90;99.90;;;;;;5092333;28;20055;-69
2022/10/07 01:26:50;;;;;;;7.82;3.08;;;8.80;99.90;;;;;;5073180;28;20531;-70
2022/10/07 01:29:29;;;;;;;8.75;2.90;;;8.80;99.90;;;;;;5090343;28;20083;-69
2022/10/07 01:32:08;;;;;;;9.57;2.63;;;8.80;99.90;;;;;;5090300;28;20040;-69
2022/10/07 01:34:35;;;;;;;6.32;2.35;;;8.80;99.90;;;;;;5069755;28;20052;-69
2022/10/07 01:37:04;;;;;;;6.25;2.75;;;8.80;99.90;;;;;;5088204;28;20056;-69
2022/10/07 01:39:37;;;;;;;10.50;3.08;;;8.80;99.90;;;;;;5091271;28;20063;-69
2022/10/07 01:42:03;;;;;;;;;;;8.80;99.90;;;;;;5088290;28;20512;-69
2022/10/07 01:44:29;;;;;;;13.25;2.42;;;8.80;99.90;;;;;;5073142;28;19923;-69
2022/10/07 01:46:55;;;;;;;8.13;2.42;;;8.80;99.90;;;;;;5071340;28;20494;-69
2022/10/07 01:49:21;;;;;;;8.90;2.78;;;8.80;99.90;;;;;;5088810;28;20494;-69
2022/10/07 01:52:07;;;;;;;10.57;2.88;;;8.80;99.90;;;;;;5086989;28;20066;-69
2022/10/07 01:55:05;;;;;;;7.22;2.60;;;8.80;99.90;;;;;;5086859;28;20063;-69
2022/10/07 01:58:01;;;;;;;8.25;2.65;;;8.80;99.90;;;;;;5017139;28;20100;-69
2022/10/07 02:00:26;;;;;;;7.88;2.42;;;8.80;99.90;;;;;;5013134;28;20111;-69
2022/10/07 02:03:28;;;;;;;10.52;2.10;;;8.90;99.90;;;;;;5010766;28;20037;-69
2022/10/07 02:06:04;;;;;;;12.52;3.15;;;8.90;99.90;;;;;;5012830;28;20124;-69
2022/10/07 02:08:35;;;;;;;9.55;2.28;;;8.90;99.90;;;;;;4995214;28;20136;-69
2022/10/07 02:11:09;;;;;;;8.77;2.10;;;8.90;99.90;;;;;;5013602;28;20481;-69
2022/10/07 02:13:57;;;;;;;11.20;2.65;;;9.00;99.90;;;;;;4995223;28;20037;-69
2022/10/07 02:16:38;;;;;;;12.55;2.67;;;9.00;99.90;;;;;;5017402;28;20037;-69
2022/10/07 02:19:10;;;;;;;12.75;2.80;;;9.00;99.90;;;;;;5010569;28;20136;-69
2022/10/07 02:21:38;;;;;;;10.18;2.40;;;9.00;99.90;;;;;;5012606;28;20045;-69
2022/10/07 02:24:06;;;;;;;16.42;2.42;;;9.00;99.90;;;;;;5016920;28;20041;-69
2022/10/07 02:26:34;;;;;;;10.07;2.75;;;9.00;99.90;;;;;;5011663;28;20784;-69
2022/10/07 02:29:05;;;;;;;8.52;2.55;;;9.00;99.90;;;;;;5001055;28;20427;-69
2022/10/07 02:31:33;;;;;;;11.02;3.25;;;9.00;99.90;;;;;;5011323;28;20145;-69
2022/10/07 02:34:02;;;;;;;11.45;2.70;;;9.00;99.90;;;;;;5035858;28;20075;-69
2022/10/07 02:36:31;;;;;;;12.15;2.83;;;9.00;99.90;;;;;;5071782;28;20305;-69
2022/10/07 02:38:59;;;;;;;14.95;3.25;;;9.00;99.90;;;;;;5088000;28;20034;-69
2022/10/07 02:41:48;;;;;;;10.07;2.70;;;9.00;99.90;;;;;;5088652;28;20083;-69
2022/10/07 02:44:41;;;;;;;9.23;3.00;;;9.00;99.90;;;;;;5087108;28;20426;-69
2022/10/07 02:47:45;;;;;;;9.88;2.55;;;9.00;99.90;;;;;;5087989;28;20414;-69
2022/10/07 02:50:15;;;;;;;11.50;2.70;;;8.90;99.90;;;;;;5099979;28;20093;-69
2022/10/07 02:52:42;;;;;;;8.65;2.60;;;8.90;99.90;;;;;;5089025;28;20172;-69
2022/10/07 02:55:11;;;;;;;9.70;2.65;;;8.90;99.90;;;;;;5089074;28;20097;-69
2022/10/07 02:57:41;;;;;;;9.65;3.15;;;8.90;99.90;;;;;;5088853;28;20441;-69
2022/10/07 03:00:08;;;;;;;14.30;3.85;;;8.90;99.90;;;;;;5086524;28;20078;-69
2022/10/07 03:03:03;;;;;;;11.35;3.50;;;8.90;99.90;;;;;;5087984;28;20039;-69
2022/10/07 03:05:29;;;;;;;14.65;3.22;;;8.80;99.90;;;;;;5082842;28;20043;-69
2022/10/07 03:08:02;;;;;;;12.50;3.00;;;8.80;99.90;;;;;;5084756;28;20036;-69
2022/10/07 03:10:30;;;;;;;;;;;8.80;99.90;;;;;;5117813;28;20048;-69
2022/10/07 03:12:56;;;;;;;10.10;3.40;;;8.80;99.90;;;;;;5122876;28;19916;-69
2022/10/07 03:15:22;;;;;;;14.38;3.25;;;8.70;99.90;;;;;;5088272;28;20565;-69
2022/10/07 03:17:48;;;;;;;9.68;3.15;;;8.70;99.90;;;;;;5087057;28;20067;-69
2022/10/07 03:20:14;;;;;;;9.10;3.90;;;8.70;99.90;;;;;;5086876;28;20491;-69
2022/10/07 03:22:43;;;;;;;9.57;3.33;;;8.70;99.90;;;;;;5087847;28;20044;-69
2022/10/07 03:25:10;;;;;;;8.40;3.50;;;8.70;99.90;;;;;;5071130;28;20142;-69
2022/10/07 03:27:36;;;;;;;11.25;3.13;;;8.70;99.90;;;;;;5087126;28;20403;-69
2022/10/07 03:30:02;;;;;;;14.98;3.35;;;8.70;99.90;;;;;;5091769;28;20032;-69
2022/10/07 03:32:27;;;;;;;14.90;3.10;;;8.70;99.90;;;;;;5088367;28;20452;-69
2022/10/07 03:34:54;;;;;;;8.27;3.25;;;8.60;99.90;;;;;;5075266;28;20043;-69
2022/10/07 03:37:23;;;;;;;9.10;3.00;;;8.60;99.90;;;;;;5075509;28;20042;-69
2022/10/07 03:39:50;;;;;;;10.98;3.72;;;8.60;99.90;;;;;;5055929;28;20036;-69
2022/10/07 03:42:16;;;;;;;13.77;3.47;;;8.60;99.90;;;;;;5057195;28;20036;-69
2022/10/07 03:44:41;;;;;;;11.95;3.40;;;8.70;99.90;;;;;;5072209;28;20451;-69
2022/10/07 03:47:07;;;;;;;11.57;3.17;;;8.60;99.90;;;;;;5073320;28;20086;-69
2022/10/07 03:49:33;;;;;;;11.60;3.00;;;8.60;99.90;;;;;;5072284;28;20032;-69
2022/10/07 03:52:00;;;;;;;13.38;3.60;;;8.60;99.90;;;;;;5073905;28;20044;-69
2022/10/07 03:54:25;;;;;;;12.13;3.13;;;8.60;99.90;;;;;;5058828;28;20497;-69
2022/10/07 03:56:51;;;;;;;10.52;3.58;;;8.60;99.90;;;;;;5074089;28;20550;-69
2022/10/07 03:59:17;;;;;;;12.38;3.40;;;8.60;99.90;;;;;;5075716;28;20090;-69
2022/10/07 04:01:42;;;;;;;14.68;4.03;;;8.60;99.90;;;;;;5054654;28;20069;-69
2022/10/07 04:04:08;;;;;;;10.88;3.20;;;8.60;99.90;;;;;;5072223;28;20044;-69
2022/10/07 04:06:34;;;;;;;14.13;3.40;;;8.60;99.90;;;;;;5059065;28;20036;-69
2022/10/07 04:09:00;;;;;;;13.07;3.70;;;8.50;99.90;;;;;;5054685;28;20048;-69
2022/10/07 04:11:26;;;;;;;10.90;3.90;;;8.50;99.90;;;;;;5076305;28;20047;-69
2022/10/07 04:13:51;;;;;;;11.43;3.70;;;8.50;99.90;;;;;;5074524;28;20047;-69
2022/10/07 04:16:18;;;;;;;10.25;3.92;;;8.50;99.90;;;;;;5074930;28;20498;-69
2022/10/07 04:18:45;;;;;;;12.77;3.92;;;8.50;99.90;;;;;;5073625;28;20491;-69
2022/10/07 04:21:11;;;;;;;13.05;4.00;;;8.50;99.90;;;;;;5074664;28;20390;-69
2022/10/07 04:23:40;;;;;;;8.52;2.88;;;8.50;99.90;;;;;;5072511;28;20110;-69
2022/10/07 04:26:10;;;;;;;13.43;3.78;;;8.50;99.90;;;;;;5075081;28;20044;-69
2022/10/07 04:28:37;;;;;;;12.57;3.80;;;8.50;99.90;;;;;;5073697;28;20074;-69
2022/10/07 04:31:04;;;;;;;8.90;3.22;;;8.50;99.90;;;;;;5076765;28;20044;-69
2022/10/07 04:33:30;;;;;;;11.20;3.75;;;8.50;99.90;;;;;;5074332;28;20422;-69
2022/10/07 04:35:55;;;;;;;12.57;4.63;;;8.40;99.90;;;;;;5074507;28;20032;-69
2022/10/07 04:38:21;;;;;;;12.40;3.60;;;8.50;99.90;;;;;;5056821;28;20032;-69
2022/10/07 04:40:49;;;;;;;14.05;3.65;;;8.50;99.90;;;;;;5074966;28;20032;-69
2022/10/07 04:43:21;;;;;;;11.25;3.60;;;8.40;99.90;;;;;;5074685;28;20032;-69
2022/10/07 04:45:48;;;;;;;;;;;8.50;99.90;;;;;;5072402;28;20055;-69
2022/10/07 04:48:16;;;;;;;16.33;3.38;;;8.40;99.90;;;;;;5074347;28;19926;-69
2022/10/07 04:50:42;;;;;;;15.18;4.05;;;8.40;99.90;;;;;;5073155;28;20139;-70
2022/10/07 04:53:10;;;;;;;11.50;3.60;;;8.50;99.90;;;;;;5075321;28;20436;-69
2022/10/07 04:55:40;;;;;;;11.25;3.67;;;8.50;99.90;;;;;;5074486;28;20051;-69
2022/10/07 04:58:07;;;;;;;13.18;4.03;;;8.40;99.90;;;;;;5072288;28;20047;-69
2022/10/07 05:00:33;;;;;;;13.45;4.40;;;8.40;99.90;;;;;;5073222;28;20036;-69
2022/10/07 05:02:59;;;;;;;16.27;3.97;;;8.50;99.90;;;;;;5073955;28;20032;-69
2022/10/07 05:05:26;;;;;;;11.27;3.70;;;8.50;99.90;;;;;;5072449;28;20139;-69
2022/10/07 05:07:53;;;;;;;16.55;3.95;;;8.50;99.90;;;;;;5073749;28;20085;-69
2022/10/07 05:10:19;;;;;;;17.05;4.50;;;8.50;99.90;;;;;;5105064;28;20044;-70
2022/10/07 05:12:45;;;;;;;14.25;3.60;;;8.50;99.90;;;;;;5072827;28;20039;-70
2022/10/07 05:15:11;;;;;;;20.30;3.78;;;8.50;99.90;;;;;;5077050;28;20389;-69
2022/10/07 05:17:39;;;;;;;12.40;3.58;;;8.60;99.90;;;;;;5072247;28;20040;-69
2022/10/07 05:20:05;;;;;;;14.57;3.92;;;8.60;99.90;;;;;;5070229;28;20112;-69
2022/10/07 05:22:32;;;;;;;10.23;3.78;;;8.60;99.90;;;;;;5069490;28;20048;-69
2022/10/07 05:24:57;;;;;;;11.00;4.53;;;8.60;99.90;;;;;;5054935;28;20048;-69
2022/10/07 05:27:23;;;;;;;13.77;4.00;;;8.60;99.90;;;;;;5069764;28;20483;-69
2022/10/07 05:29:48;;;;;;;12.85;3.60;;;8.60;99.90;;;;;;5074631;28;20051;-69
2022/10/07 05:32:14;;;;;;;16.63;4.13;;;8.70;99.90;;;;;;5073027;28;20035;-69
2022/10/07 05:34:40;;;;;;;17.10;4.18;;;8.70;99.90;;;;;;5087272;28;20393;-67
2022/10/07 05:37:06;;;;;;;16.27;4.72;;;8.70;99.90;;;;;;5087174;28;20044;-68
2022/10/07 05:39:32;;;;;;;11.70;4.10;;;8.70;99.90;;;;;;5084728;28;20033;-68
2022/10/07 05:41:57;;;;;;;18.10;5.25;;;8.70;99.90;;;;;;5087744;28;20039;-68
2022/10/07 05:44:24;;;;;;;15.35;4.60;;;8.70;99.90;;;;;;5088645;28;20036;-67
2022/10/07 05:46:49;;;;;;;21.27;4.80;;;8.80;99.90;;;;;;5061321;28;20043;-68
2022/10/07 05:49:15;;;;;;;17.48;4.10;;;8.80;99.90;;;;;;5080504;28;20461;-69
2022/10/07 05:51:41;;;;;;;19.23;4.57;;;8.80;99.90;;;;;;5080782;28;20040;-68
2022/10/07 05:54:07;;;;;;;16.50;4.53;;;8.80;99.90;;;;;;5083559;28;20075;-68
2022/10/07 05:56:34;;;;;;;12.98;4.57;;;8.80;99.90;;;;;;5086997;28;20044;-67
2022/10/07 05:59:00;;;;;;;14.88;3.88;;;8.80;99.90;;;;;;5088282;28;20036;-69
2022/10/07 06:01:27;;;;;;;14.13;4.10;;;8.80;99.90;;;;;;5079925;28;20093;-67
2022/10/07 06:03:56;;;;;;;15.52;4.20;;;8.80;99.90;;;;;;5078980;28;20032;-68
2022/10/07 06:06:23;;;;;;;18.23;5.45;;;8.90;99.90;;;;;;5080822;28;20063;-68
2022/10/07 06:08:49;;;;;;;16.42;4.40;;;8.90;99.90;;;;;;5087688;28;20054;-67
2022/10/07 06:14:02;;;;;;;14.07;3.53;;;9.00;99.90;;;;;;5085950;28;20044;-67
2022/10/07 06:16:28;;;;;;;16.55;3.97;;;9.00;99.90;;;;;;5089540;28;20044;-68
2022/10/07 06:18:55;;;;;;;12.77;3.63;;;9.00;99.90;;;;;;5085066;28;20036;-67
2022/10/07 06:21:26;;;;;;;13.35;3.70;;;9.00;99.90;;;;;;5089206;28;20075;-67
2022/10/07 06:23:52;;;;;;;14.82;5.38;;;9.10;99.90;;;;;;5088237;28;20043;-67
2022/10/07 06:26:19;;;;;;;16.50;4.22;;;9.00;99.90;;;;;;5087047;28;20101;-69
2022/10/07 06:28:45;;;;;;;12.32;4.18;;;9.10;99.90;;;;;;5084638;28;20083;-67
2022/10/07 06:31:23;;;;;;;21.42;4.57;;;9.10;99.90;;;;;;5072211;28;20145;-68
2022/10/07 06:33:50;;;;;;;12.10;3.70;;;9.10;99.90;;;;;;5087670;28;20044;-68
2022/10/07 06:36:16;;;;;;;19.30;4.22;;;9.10;99.90;;;;;;5072389;28;20044;-67
2022/10/07 06:38:49;;;;;;;15.40;3.80;;;9.20;99.90;;;;;;5088025;28;20170;-67
2022/10/07 06:41:16;;;;;;;15.68;4.68;;;9.20;99.90;;;;;;5071880;28;20493;-68
2022/10/07 06:43:42;;;;;;;15.05;3.97;;;9.20;99.90;;;;;;5089418;28;20027;-67
2022/10/07 06:46:13;;;;;;;22.40;4.47;;;9.30;99.90;;;;;;5087503;28;20078;-67
2022/10/07 06:48:40;;;;;;;19.33;4.10;;;9.30;99.90;;;;;;5087304;28;20493;-69
2022/10/07 06:51:07;;;;;;;12.68;4.20;;;9.40;99.90;;;;;;5082788;28;20056;-69
2022/10/07 06:53:33;;;;;;;13.68;3.50;;;9.50;99.90;;;;;;5088100;28;20051;-70
2022/10/07 06:56:03;;;;;;;13.52;3.75;;;9.60;99.90;;;;;;5088184;28;20048;-67
2022/10/07 06:58:29;;;;;;;17.55;4.05;;;9.70;99.90;;;;;;5089360;28;20036;-68
2022/10/07 07:00:56;;;;;;;18.80;3.63;;;9.80;99.90;;;;;;5089201;28;20089;-68
2022/10/07 07:03:22;;;;;;;14.40;3.38;;;9.90;99.90;;;;;;5089041;28;20040;-68
2022/10/07 07:05:50;;;;;;;14.35;3.25;;;10.00;99.90;;;;;;5088683;28;20040;-68
2022/10/07 07:08:17;;;;;;;13.70;3.47;;;10.20;99.90;;;;;;5088828;28;20085;-68
2022/10/07 07:10:43;;;;;;;16.88;3.55;;;10.40;99.90;;;;;;5085289;28;20457;-67
2022/10/07 07:13:10;;;;;;;17.27;3.53;;;10.50;99.90;;;;;;5087982;28;20055;-68
2022/10/07 07:15:36;;;;;;;10.25;3.00;;;10.70;99.90;;;;;;5088667;28;20028;-68
2022/10/07 07:18:03;;;;;;;14.13;3.15;;;10.80;99.90;;;;;;5088629;28;20063;-68
2022/10/07 07:20:34;;;;;;;14.07;2.80;;;10.90;99.90;;;;;;5088493;28;20427;-67
2022/10/07 07:23:04;;;;;;;13.05;3.50;;;11.00;99.90;;;;;;5087002;28;20044;-68
2022/10/07 07:25:31;;;;;;;17.25;3.63;;;11.10;99.90;;;;;;5087811;28;20127;-68
2022/10/07 07:28:00;;;;;;;13.70;2.75;;;11.10;99.90;;;;;;5088456;28;20135;-67
2022/10/07 07:30:27;;;;;;;13.55;2.85;;;11.30;99.90;;;;;;5071807;28;20471;-68
2022/10/07 07:32:54;;;;;;;9.70;2.40;;;11.40;99.90;;;;;;5087129;28;20105;-67
2022/10/07 07:35:21;;;;;;;12.75;3.10;;;11.40;99.90;;;;;;5088310;28;20048;-69
2022/10/07 07:37:47;;;;;;;15.90;3.22;;;11.50;99.90;;;;;;5088427;28;20051;-68
2022/10/07 07:40:12;;;;;;;10.63;2.70;;;11.60;99.90;;;;;;5088662;28;20035;-68
2022/10/07 07:42:38;;;;;;;14.13;2.80;;;11.70;99.90;;;;;;5071195;28;20087;-69
2022/10/07 07:45:04;;;;;;;10.10;3.22;;;11.80;99.90;;;;;;5088798;28;20036;-69
2022/10/07 07:47:30;;;;;;;9.88;2.50;;;11.90;99.90;;;;;;5088545;28;20073;-68
2022/10/07 07:49:55;;;;;;;11.75;2.63;;;11.90;99.90;;;;;;5088372;28;20127;-68
2022/10/07 07:52:24;;;;;;;24.80;4.70;;;12.00;99.90;;;;;;5088436;28;20048;-67
2022/10/07 07:54:51;;;;;;;14.43;2.67;;;12.10;99.90;;;;;;5088213;28;20047;-69
2022/10/07 07:57:16;;;;;;;16.17;2.83;;;12.20;99.90;;;;;;5088204;28;20451;-68
2022/10/07 07:59:42;;;;;;;16.67;2.47;;;12.30;99.90;;;;;;5088459;28;20129;-67
2022/10/07 08:02:10;;;;;;;12.55;2.40;;;12.40;99.90;;;;;;5088483;28;20505;-67
2022/10/07 08:04:36;;;;;;;11.15;2.35;;;12.60;99.90;;;;;;5088075;28;20036;-67
2022/10/07 08:07:02;;;;;;;16.23;3.13;;;12.60;99.90;;;;;;5088228;28;20050;-68
2022/10/07 08:09:27;;;;;;;15.02;2.83;;;12.60;99.90;;;;;;5088466;28;20473;-69
2022/10/07 08:11:53;;;;;;;15.90;2.65;;;12.60;99.90;;;;;;5088559;28;20039;-67
2022/10/07 08:14:18;;;;;;;15.32;3.03;;;12.60;99.90;;;;;;5091559;28;20406;-70
2022/10/07 08:16:44;;;;;;;14.90;2.72;;;12.60;99.90;;;;;;5091455;28;20047;-67
2022/10/07 08:19:11;;;;;;;8.05;2.22;;;12.70;99.90;;;;;;5075408;28;20402;-67
2022/10/07 08:21:37;;;;;;;9.18;2.20;;;12.90;99.90;;;;;;5093025;28;20043;-68
2022/10/07 08:24:04;;;;;;;10.98;2.80;;;13.00;99.90;;;;;;5091763;28;20414;-69
2022/10/07 08:26:32;;;;;;;11.57;2.38;;;13.10;99.90;;;;;;5091183;28;20036;-68
2022/10/07 08:28:59;;;;;;;13.30;2.60;;;13.20;99.90;;;;;;5091664;28;20044;-68
2022/10/07 08:31:27;;;;;;;14.35;2.78;;;13.20;99.90;;;;;;5091354;28;20039;-68
2022/10/07 08:33:54;;;;;;;16.27;3.47;;;13.20;99.90;;;;;;5091398;28;20060;-67
2022/10/07 08:36:22;;;;;;;13.02;2.65;;;13.40;99.90;;;;;;5074281;28;20524;-69
2022/10/07 08:38:48;;;;;;;13.13;2.58;;;13.50;99.90;;;;;;5087849;28;20082;-68
2022/10/07 08:41:31;;;;;;;13.18;2.30;;;13.60;99.90;;;;;;5091646;28;20554;-68
2022/10/07 08:44:19;;;;;;;10.80;2.55;;;13.70;99.90;;;;;;5091041;28;20088;-70
2022/10/07 08:46:56;;;;;;;14.27;2.35;;;13.90;99.90;;;;;;5090855;28;20040;-67
2022/10/07 08:49:35;;;;;;;17.27;2.70;;;14.10;99.90;;;;;;5071257;28;20113;-66
2022/10/07 08:52:34;;;;;;;19.13;2.80;;;14.20;99.90;;;;;;5074315;28;20125;-67
2022/10/07 08:55:00;;;;;;;16.10;2.15;;;14.40;99.90;;;;;;5084681;28;20145;-67
2022/10/07 08:57:41;;;;;;;13.30;2.60;;;14.60;99.90;;;;;;5090753;28;20067;-68
2022/10/07 09:00:12;;;;;;;10.68;2.55;;;14.70;99.90;;;;;;5088746;28;20036;-68
2022/10/07 09:03:01;;;;;;;16.13;2.40;;;14.80;99.90;;;;;;5073612;28;20044;-67
2022/10/07 09:05:33;;;;;;;12.20;2.35;;;14.80;99.90;;;;;;5073111;28;20036;-67
2022/10/07 09:08:08;;;;;;;13.17;2.60;;;14.80;99.90;;;;;;5091027;28;20048;-67
2022/10/07 09:10:48;;;;;;;11.57;2.20;;;14.90;99.90;;;;;;5074235;28;20043;-67
2022/10/07 09:13:34;;;;;;;10.48;2.50;;;14.90;99.90;;;;;;5071740;28;20064;-67
2022/10/07 09:16:12;;;;;;;10.70;2.67;;;15.10;99.90;;;;;;5090707;28;20080;-67
2022/10/07 09:18:58;;;;;;;13.55;2.22;;;15.20;99.90;;;;;;5073336;28;20056;-66
2022/10/07 09:21:34;;;;;;;9.90;2.15;;;15.40;99.90;;;;;;5090105;28;20050;-67
2022/10/07 09:24:24;;;;;;;13.85;2.13;;;15.40;99.90;;;;;;5089997;28;20067;-67
2022/10/07 09:26:54;;;;;;;15.80;3.22;;;15.60;99.90;;;;;;5090764;28;20399;-67
2022/10/07 09:29:23;;;;;;;15.20;2.67;;;15.70;99.90;;;;;;5090552;28;20036;-68
2022/10/07 09:31:48;;;;;;;11.55;2.10;;;15.80;99.90;;;;;;5089881;28;20044;-69
2022/10/07 09:34:27;;;;;;;15.80;2.25;;;15.90;99.90;;;;;;5090219;28;20052;-68
2022/10/07 09:37:14;;;;;;;12.82;2.10;;;16.00;99.90;;;;;;5090393;28;20048;-69
2022/10/07 09:39:41;;;;;;;10.60;2.33;;;16.40;99.90;;;;;;5090344;28;20040;-67
2022/10/07 09:42:24;;;;;;;16.92;2.65;;;16.60;99.90;;;;;;5089935;28;20135;-68
2022/10/07 09:44:56;;;;;;;12.37;2.27;;;16.50;99.90;;;;;;5087933;28;20521;-69
2022/10/07 09:47:36;;;;;;;12.85;2.20;;;16.60;99.90;;;;;;5089100;28;20046;-68
2022/10/07 09:50:02;;;;;;;10.30;1.98;;;16.60;99.90;;;;;;5088927;28;20039;-68
2022/10/07 09:52:30;;;;;;;9.63;2.20;;;16.50;99.90;;;;;;5088482;28;20401;-67
2022/10/07 09:55:16;;;;;;;13.52;2.40;;;16.70;99.90;;;;;;5090039;28;20047;-69
2022/10/07 09:57:42;;;;;;;15.13;2.70;;;16.80;99.90;;;;;;5090030;28;20058;-66
2022/10/07 10:00:11;;;;;;;12.98;2.63;;;16.90;99.90;;;;;;5089671;28;20047;-69
2022/10/07 10:02:41;;;;;;;11.13;2.10;;;16.80;99.90;;;;;;5088946;28;20039;-69
2022/10/07 10:05:24;;;;;;;10.65;2.35;;;16.70;99.90;;;;;;5069940;28;20082;-66
2022/10/07 10:07:54;;;;;;;11.60;1.83;;;16.70;99.90;;;;;;5071996;28;20044;-68
2022/10/07 10:10:23;;;;;;;11.32;1.95;;;16.60;99.90;;;;;;5089100;28;20589;-69
2022/10/07 10:12:51;;;;;;;10.40;2.65;;;16.90;99.90;;;;;;5087219;28;20418;-67
2022/10/07 10:15:28;;;;;;;9.80;2.00;;;17.10;99.90;;;;;;5088202;28;20486;-68
2022/10/07 10:17:55;;;;;;;10.52;1.98;;;17.40;99.90;;;;;;5089668;28;20044;-68
2022/10/07 10:20:24;;;;;;;10.60;2.30;;;17.60;99.90;;;;;;5089479;28;20075;-68
2022/10/07 10:22:51;;;;;;;11.25;1.90;;;17.70;99.90;;;;;;5073126;28;20039;-68
2022/10/07 10:28:56;;;;;;;10.13;2.00;;;18.20;99.90;;;;;;5089315;28;20051;-68
2022/10/07 10:31:34;;;;;;;9.35;1.77;;;18.30;99.90;;;;;;5089735;28;20387;-67
2022/10/07 10:34:25;;;;;;;8.02;1.90;;;18.40;99.90;;;;;;5089447;28;20671;-68
2022/10/07 10:36:59;;;;;;;12.32;2.05;;;18.50;99.90;;;;;;5087566;28;20048;-68
2022/10/07 10:39:42;;;;;;;11.55;2.20;;;18.60;99.90;;;;;;5089082;28;20094;-68
2022/10/07 10:42:13;;;;;;;15.88;2.28;;;18.70;99.90;;;;;;5089713;28;20109;-67
2022/10/07 10:44:45;;;;;;;8.40;1.77;;;18.50;99.90;;;;;;5088102;28;20159;-68
2022/10/07 10:47:11;;;;;;;;;;;18.20;99.90;;;;;;5087955;28;20046;-67
2022/10/07 10:49:46;;;;;;;13.48;2.72;;;18.20;99.90;;;;;;5092189;28;20006;-68
2022/10/07 10:52:33;;;;;;;8.90;2.30;;;18.20;99.90;;;;;;5086798;28;20036;-68
2022/10/07 10:55:21;;;;;;;14.98;2.25;;;18.00;99.90;;;;;;5085089;28;20065;-69
2022/10/07 10:58:00;;;;;;;11.90;2.30;;;17.70;99.90;;;;;;5087656;28;20040;-68
2022/10/07 11:00:39;;;;;;;14.73;2.75;;;17.50;99.90;;;;;;5068509;28;20059;-67
2022/10/07 11:03:23;;;;;;;12.80;2.20;;;17.30;99.90;;;;;;5086570;28;20040;-68
2022/10/07 11:05:50;;;;;;;11.40;2.35;;;17.10;99.90;;;;;;5088059;28;20119;-69
2022/10/07 11:08:24;;;;;;;15.85;2.55;;;16.90;99.90;;;;;;5087573;28;20093;-68
2022/10/07 11:11:12;;;;;;;11.32;2.08;;;16.80;99.90;;;;;;5086812;28;20036;-67
2022/10/07 11:13:42;;;;;;;11.70;2.33;;;16.60;99.90;;;;;;5087860;28;20372;-68
2022/10/07 11:16:35;;;;;;;14.10;2.15;;;16.50;99.90;;;;;;5085932;28;20054;-69
2022/10/07 11:19:22;;;;;;;8.90;2.08;;;16.50;99.90;;;;;;5087247;28;20053;-68
2022/10/07 11:21:53;;;;;;;12.10;2.67;;;16.60;99.90;;;;;;5112427;28;20136;-68
2022/10/07 11:24:28;;;;;;;15.48;2.67;;;16.90;99.90;;;;;;5086669;28;20119;-67
2022/10/07 11:27:27;;;;;;;14.52;2.78;;;17.30;99.90;;;;;;5088218;28;20035;-67
2022/10/07 11:30:14;;;;;;;12.10;2.30;;;17.80;99.90;;;;;;5088664;28;20040;-68
2022/10/07 11:33:00;;;;;;;13.77;3.42;;;18.00;99.90;;;;;;5088726;28;20447;-69
2022/10/07 11:35:32;;;;;;;9.35;2.40;;;18.10;99.90;;;;;;5072217;28;20051;-68
2022/10/07 11:38:13;;;;;;;;;;;18.20;99.90;;;;;;5072442;28;20411;-68
2022/10/07 11:40:47;;;;;;;13.60;2.35;;;18.10;99.90;;;;;;5055364;28;19923;-67
2022/10/07 11:43:25;;;;;;;10.82;2.33;;;18.00;99.90;;;;;;5072034;28;20043;-68
2022/10/07 11:45:55;;;;;;;10.93;2.05;;;18.10;99.90;;;;;;5071672;28;20036;-70
2022/10/07 11:48:34;;;;;;;14.02;2.15;;;17.80;99.90;;;;;;5074624;28;20432;-68
2022/10/07 11:51:05;;;;;;;10.25;2.03;;;17.50;99.90;;;;;;5093740;28;20036;-69
2022/10/07 11:53:35;;;;;;;10.02;2.47;;;17.50;99.90;;;;;;5075654;28;20047;-70
2022/10/07 11:56:05;;;;;;;11.13;2.10;;;17.50;99.90;;;;;;5058913;28;20449;-68
2022/10/07 11:58:36;;;;;;;10.55;2.13;;;17.40;99.90;;;;;;5075615;28;20075;-67
2022/10/07 12:01:38;;;;;;;13.85;2.92;;;17.40;99.90;;;;;;5075682;28;20043;-69
2022/10/07 12:04:28;;;;;;;9.77;2.20;;;17.30;99.90;;;;;;5075787;28;20048;-66
2022/10/07 12:07:34;;;;;;;11.43;2.10;;;17.40;99.90;;;;;;5075591;28;20547;-69
2022/10/07 12:10:02;;;;;;;8.38;1.35;;;17.30;99.90;;;;;;5075325;28;20072;-68
2022/10/07 12:12:44;;;;;;;11.52;1.75;;;17.30;99.90;;;;;;5075229;28;20075;-66
2022/10/07 12:15:37;;;;;;;7.88;1.98;;;17.30;99.90;;;;;;5074917;28;20093;-68
2022/10/07 12:18:03;;;;;;;9.23;1.67;;;17.20;99.90;;;;;;5074936;28;20073;-67
2022/10/07 12:20:53;;;;;;;9.48;1.80;;;17.20;99.90;;;;;;5075222;28;20070;-69
2022/10/07 12:23:19;;;;;;;7.75;1.80;;;17.10;99.90;;;;;;5075165;28;20032;-67
2022/10/07 12:25:50;;;;;;;11.20;2.38;;;17.00;99.90;;;;;;5075158;28;20444;-68
2022/10/07 12:28:26;;;;;;;11.90;2.10;;;17.00;99.90;;;;;;5074941;28;20032;-69
2022/10/07 12:30:54;;;;;;;8.88;1.92;;;17.00;99.90;;;;;;5058421;28;20122;-67
2022/10/07 12:33:42;;;;;;;9.40;1.85;;;16.90;99.90;;;;;;5074770;28;20712;-68
2022/10/07 12:36:22;;;;;;;7.15;1.50;;;16.90;99.90;;;;;;5057968;28;20048;-69
2022/10/07 12:38:58;;;;;;;9.05;1.52;;;16.90;99.90;;;;;;5074927;28;20044;-69
2022/10/07 12:41:37;;;;;;;10.30;2.42;;;17.00;99.90;;;;;;5074784;28;20044;-68
2022/10/07 12:44:29;;;;;;;8.07;2.30;;;17.00;99.90;;;;;;5074843;28;20036;-66
2022/10/07 12:47:07;;;;;;;9.10;1.88;;;17.10;99.90;;;;;;5058083;28;20040;-68
2022/10/07 12:49:41;;;;;;;8.23;1.92;;;17.00;99.90;;;;;;5057841;28;20058;-68
2022/10/07 12:52:28;;;;;;;8.48;1.63;;;17.00;99.90;;;;;;5074540;28;20081;-67
2022/10/07 12:54:55;;;;;;;5.45;1.25;;;16.90;99.90;;;;;;5074600;28;20089;-68
2022/10/07 12:57:24;;;;;;;7.93;2.00;;;16.90;99.90;;;;;;5074522;28;20040;-66
2022/10/07 13:00:06;;;;;;;9.77;1.90;;;16.80;99.90;;;;;;5073389;28;20043;-68
2022/10/07 13:02:53;;;;;;;7.95;1.60;;;16.80;99.90;;;;;;5074436;28;20035;-68
2022/10/07 13:05:56;;;;;;;10.13;1.55;;;16.80;99.90;;;;;;5074119;28;20075;-67
2022/10/07 13:08:47;;;;;;;7.75;1.75;;;16.80;99.90;;;;;;5073818;28;20046;-67
2022/10/07 13:11:24;;;;;;;10.45;1.65;;;16.90;99.90;;;;;;5073757;28;20453;-66
2022/10/07 13:14:12;;;;;;;10.07;1.80;;;16.90;99.90;;;;;;5074468;28;20494;-70
2022/10/07 13:16:53;;;;;;;6.35;1.58;;;17.00;99.90;;;;;;5074046;28;20044;-68